createdAt,value
2018-09-13T00:00:39.578Z,97059.89
2018-09-13T00:04:04.236Z,97066.05
2018-09-13T00:07:28.880Z,97070.56
2018-09-13T00:10:53.506Z,97063.65
2018-09-13T00:14:18.182Z,97059.72
2018-09-13T00:17:42.820Z,97059.36
2018-09-13T00:21:07.845Z,97058.73
2018-09-13T00:24:32.514Z,97056.01
2018-09-13T00:27:57.176Z,97052.41
2018-09-13T00:31:21.838Z,97047.62
2018-09-13T00:34:46.474Z,97054.09
2018-09-13T00:38:11.138Z,97032.34
2018-09-13T00:41:36.004Z,97019.08
2018-09-13T00:45:00.704Z,97011.09
2018-09-13T00:48:25.366Z,97013.70
2018-09-13T00:51:50.011Z,97010.84
2018-09-13T00:55:14.663Z,97000.72
2018-09-13T00:58:39.345Z,97001.89
2018-09-13T01:02:04.010Z,97000.94
2018-09-13T01:05:28.659Z,96998.80
2018-09-13T01:08:53.353Z,96988.53
2018-09-13T01:12:18.047Z,96994.39
2018-09-13T01:15:42.782Z,96995.69
2018-09-13T01:19:07.534Z,96993.42
2018-09-13T01:22:32.229Z,96995.70
2018-09-13T01:25:56.880Z,96983.18
2018-09-13T01:29:21.562Z,96978.27
2018-09-13T01:32:46.254Z,96964.80
2018-09-13T01:36:11.006Z,96965.34
2018-09-13T01:39:35.655Z,96959.05
2018-09-13T01:43:00.306Z,96957.50
2018-09-13T01:46:24.962Z,96954.53
2018-09-13T01:49:49.738Z,96945.59
2018-09-13T01:53:14.404Z,96946.63
2018-09-13T01:56:39.110Z,96941.61
2018-09-13T02:00:03.843Z,96937.81
2018-09-13T02:03:28.548Z,96934.95
2018-09-13T02:06:53.236Z,96933.17
2018-09-13T02:10:17.998Z,96934.95
2018-09-13T02:13:42.660Z,96940.58
2018-09-13T02:17:07.332Z,96932.33
2018-09-13T02:20:32.018Z,96928.86
2018-09-13T02:23:56.786Z,96927.02
2018-09-13T02:27:21.448Z,96926.00
2018-09-13T02:30:46.104Z,96924.45
2018-09-13T02:34:10.821Z,96924.02
2018-09-13T02:37:35.504Z,96917.92
2018-09-13T02:41:00.206Z,96914.23
2018-09-13T02:44:24.832Z,96901.63
2018-09-13T02:47:49.490Z,96906.70
2018-09-13T02:51:14.292Z,96902.30
2018-09-13T02:54:38.955Z,96902.33
2018-09-13T02:58:03.722Z,96892.31
2018-09-13T03:01:28.499Z,96890.81
2018-09-13T03:04:53.557Z,96893.34
2018-09-13T03:08:18.237Z,96886.78
2018-09-13T03:11:44.043Z,96892.02
2018-09-13T03:15:09.304Z,96894.92
2018-09-13T03:18:34.241Z,96901.23
2018-09-13T03:21:58.929Z,96893.34
2018-09-13T03:25:23.596Z,96889.88
2018-09-13T03:28:48.288Z,96884.41
2018-09-13T03:32:13.015Z,96885.13
2018-09-13T03:35:37.667Z,96873.32
2018-09-13T03:39:02.447Z,96870.84
2018-09-13T03:42:27.118Z,96869.31
2018-09-13T03:45:51.797Z,96868.01
2018-09-13T03:49:16.474Z,96880.67
2018-09-13T03:52:41.556Z,96876.20
2018-09-13T03:56:06.456Z,96879.38
2018-09-13T03:59:31.109Z,96880.62
2018-09-13T04:02:55.791Z,96880.75
2018-09-13T04:06:20.535Z,96881.69
2018-09-13T04:09:45.206Z,96881.64
2018-09-13T04:13:09.880Z,96879.91
2018-09-13T04:16:34.560Z,96877.33
2018-09-13T04:19:59.236Z,96876.33
2018-09-13T04:23:23.924Z,96869.34
2018-09-13T04:26:48.608Z,96872.67
2018-09-13T04:30:13.268Z,96872.02
2018-09-13T04:33:37.946Z,96872.31
2018-09-13T04:37:02.604Z,96864.90
2018-09-13T04:40:27.230Z,96867.52
2018-09-13T04:43:51.969Z,96870.57
2018-09-13T04:47:16.578Z,96866.75
2018-09-13T04:50:41.271Z,96862.96
2018-09-13T04:54:05.974Z,96868.80
2018-09-13T04:57:30.728Z,96872.70
2018-09-13T05:00:55.402Z,96870.08
2018-09-13T05:05:49.469Z,96849.55
2018-09-13T05:09:14.854Z,96856.31
2018-09-13T05:12:39.628Z,96860.55
2018-09-13T05:16:04.384Z,96859.58
2018-09-13T05:19:29.023Z,96857.80
2018-09-13T05:22:53.738Z,96853.56
2018-09-13T05:26:18.477Z,96865.55
2018-09-13T05:29:43.144Z,96867.75
2018-09-13T05:33:08.112Z,96867.70
2018-09-13T05:36:32.821Z,96863.04
2018-09-13T05:39:57.614Z,96857.38
2018-09-13T05:43:22.372Z,96863.93
2018-09-13T05:46:47.019Z,96867.65
2018-09-13T05:50:11.682Z,96864.91
2018-09-13T05:53:36.338Z,96867.16
2018-09-13T05:57:01.100Z,96861.86
2018-09-13T06:00:25.914Z,96865.89
2018-09-13T06:03:50.539Z,96862.81
2018-09-13T06:07:15.229Z,96860.52
2018-09-13T06:10:40.230Z,96859.69
2018-09-13T06:14:05.246Z,96863.70
2018-09-13T06:17:29.872Z,96866.34
2018-09-13T06:20:54.521Z,96866.28
2018-09-13T06:24:20.428Z,96870.52
2018-09-13T06:27:45.132Z,96870.53
2018-09-13T06:31:09.778Z,96867.28
2018-09-13T06:34:34.416Z,96858.45
2018-09-13T06:37:59.072Z,96865.30
2018-09-13T06:41:23.841Z,96863.22
2018-09-13T06:44:48.482Z,96858.73
2018-09-13T06:48:13.280Z,96854.09
2018-09-13T06:51:38.051Z,96854.23
2018-09-13T06:55:02.797Z,96859.83
2018-09-13T06:58:27.377Z,96858.47
2018-09-13T07:01:52.088Z,96855.09
2018-09-13T07:05:16.746Z,96866.67
2018-09-13T07:08:41.457Z,96881.76
2018-09-13T07:12:06.152Z,96876.30
2018-09-13T07:15:30.790Z,96883.23
2018-09-13T07:18:55.450Z,96885.24
2018-09-13T07:22:20.101Z,96886.45
2018-09-13T07:25:44.792Z,96877.95
2018-09-13T07:29:09.392Z,96883.70
2018-09-13T07:32:34.057Z,96891.27
2018-09-13T07:35:58.749Z,96886.28
2018-09-13T07:39:23.426Z,96888.61
2018-09-13T07:42:48.102Z,96886.47
2018-09-13T07:46:12.710Z,96882.87
2018-09-13T07:49:37.465Z,96886.64
2018-09-13T07:53:02.122Z,96893.66
2018-09-13T07:56:26.838Z,96894.45
2018-09-13T07:59:51.459Z,96898.02
2018-09-13T08:03:17.374Z,96894.91
2018-09-13T08:06:42.057Z,96893.19
2018-09-13T08:10:06.792Z,96894.13
2018-09-13T08:13:31.417Z,96897.44
2018-09-13T08:16:56.116Z,96889.89
2018-09-13T08:20:20.952Z,96886.95
2018-09-13T08:23:45.642Z,96887.06
2018-09-13T08:27:10.354Z,96892.13
2018-09-13T08:30:34.938Z,96881.37
2018-09-13T08:33:59.634Z,96881.78
2018-09-13T08:37:24.267Z,96890.66
2018-09-13T08:40:49.049Z,96888.23
2018-09-13T08:44:13.678Z,96893.59
2018-09-13T08:47:38.348Z,96897.78
2018-09-13T08:51:02.994Z,96899.63
2018-09-13T08:54:27.650Z,96900.80
2018-09-13T08:57:52.348Z,96900.06
2018-09-13T09:01:17.042Z,96895.84
2018-09-13T09:04:41.691Z,96899.44
2018-09-13T09:08:06.496Z,96888.14
2018-09-13T09:11:31.174Z,96883.80
2018-09-13T09:14:55.807Z,96888.34
2018-09-13T09:18:20.477Z,96889.77
2018-09-13T09:21:45.086Z,96881.85
2018-09-13T09:25:09.722Z,96882.44
2018-09-13T09:28:34.376Z,96881.55
2018-09-13T09:31:59.026Z,96877.00
2018-09-13T09:35:23.663Z,96866.57
2018-09-13T09:38:48.438Z,96866.69
2018-09-13T09:42:13.048Z,96868.59
2018-09-13T09:45:37.690Z,96861.65
2018-09-13T09:49:02.348Z,96863.55
2018-09-13T09:52:27.000Z,96850.31
2018-09-13T09:55:51.661Z,96853.05
2018-09-13T09:59:16.306Z,96860.27
2018-09-13T10:02:40.932Z,96848.44
2018-09-13T10:06:05.540Z,96855.27
2018-09-13T10:09:30.196Z,96843.66
2018-09-13T10:12:55.206Z,96847.06
2018-09-13T10:16:25.008Z,96847.58
2018-09-13T10:19:54.922Z,96847.64
2018-09-13T10:23:24.964Z,96841.91
2018-09-13T10:26:55.189Z,96841.28
2018-09-13T10:30:25.177Z,96841.49
2018-09-13T10:33:55.070Z,96839.05
2018-09-13T10:37:25.000Z,96837.72
2018-09-13T10:40:55.019Z,96844.98
2018-09-13T10:44:25.417Z,96843.13
2018-09-13T10:47:56.921Z,96831.36
2018-09-13T10:52:26.408Z,96822.94
2018-09-13T10:55:51.121Z,96811.42
2018-09-13T10:59:15.783Z,96818.17
2018-09-13T11:02:40.469Z,96808.86
2018-09-13T11:06:05.162Z,96809.47
2018-09-13T11:09:30.004Z,96801.75
2018-09-13T11:12:58.742Z,96798.19
2018-09-13T11:16:23.429Z,96798.41
2018-09-13T11:19:48.580Z,96798.80
2018-09-13T11:23:15.006Z,96802.42
2018-09-13T11:26:40.264Z,96796.35
2018-09-13T11:30:05.858Z,96796.09
2018-09-13T11:33:31.198Z,96797.28
2018-09-13T11:36:55.860Z,96791.05
2018-09-13T11:40:20.641Z,96786.94
2018-09-13T11:43:45.287Z,96787.13
2018-09-13T11:47:09.982Z,96790.15
2018-09-13T11:50:35.362Z,96782.20
2018-09-13T11:54:00.269Z,96771.30
2018-09-13T11:57:25.018Z,96767.19
2018-09-13T12:00:50.109Z,96774.66
2018-09-13T12:04:14.716Z,96764.38
2018-09-13T12:07:39.374Z,96765.66
2018-09-13T12:11:04.010Z,96751.08
2018-09-13T12:14:28.690Z,96746.98
2018-09-13T12:17:53.404Z,96744.29
2018-09-13T12:21:18.098Z,96739.86
2018-09-13T12:24:42.764Z,96728.95
2018-09-13T12:28:07.726Z,96725.95
2018-09-13T12:31:32.387Z,96717.66
2018-09-13T12:34:57.012Z,96714.34
2018-09-13T12:38:21.620Z,96708.32
2018-09-13T12:41:46.299Z,96703.00
2018-09-13T12:45:11.584Z,96697.56
2018-09-13T12:48:36.246Z,96695.39
2018-09-13T12:52:00.926Z,96686.75
2018-09-13T12:55:30.993Z,96681.25
2018-09-13T12:58:55.626Z,96682.94
2018-09-13T13:02:20.302Z,96686.75
2018-09-13T13:05:44.920Z,96673.66
2018-09-13T13:09:10.864Z,96670.34
2018-09-13T13:12:35.526Z,96670.86
2018-09-13T13:16:00.276Z,96674.23
2018-09-13T13:19:25.043Z,96659.01
2018-09-13T13:22:49.674Z,96657.91
2018-09-13T13:26:14.310Z,96659.05
2018-09-13T13:29:39.117Z,96657.57
2018-09-13T13:33:03.742Z,96648.08
2018-09-13T13:36:28.419Z,96645.49
2018-09-13T13:39:53.080Z,96643.96
2018-09-13T13:43:18.928Z,96643.95
2018-09-13T13:46:45.257Z,96641.03
2018-09-13T13:50:10.552Z,96636.92
2018-09-13T13:57:25.665Z,96622.49
2018-09-13T14:00:51.717Z,96624.36
2018-09-13T14:04:17.393Z,96626.27
2018-09-13T14:07:47.108Z,96618.77
2018-09-13T14:11:12.424Z,96621.92
2018-09-13T14:14:38.822Z,96619.35
2018-09-13T14:18:08.321Z,96622.45
2018-09-13T14:21:33.511Z,96616.94
2018-09-13T14:24:58.854Z,96612.55
2018-09-13T14:28:24.166Z,96612.27
2018-09-13T14:31:54.183Z,96609.95
2018-09-13T14:35:19.956Z,96605.92
2018-09-13T14:38:45.867Z,96598.97
2018-09-13T14:42:12.129Z,96595.00
2018-09-13T14:45:37.217Z,96595.89
2018-09-13T14:49:04.618Z,96583.00
2018-09-13T14:52:30.507Z,96582.94
2018-09-13T14:55:56.170Z,96577.09
2018-09-13T14:59:26.133Z,96578.70
2018-09-13T15:02:51.211Z,96586.39
2018-09-13T15:06:15.985Z,96591.84
2018-09-13T15:09:40.735Z,96593.81
2018-09-13T15:13:05.570Z,96597.11
2018-09-13T15:16:30.231Z,96600.19
2018-09-13T15:19:54.933Z,96595.33
2018-09-13T15:23:19.615Z,96605.12
2018-09-13T15:26:44.310Z,96602.55
2018-09-13T15:30:09.072Z,96597.61
2018-09-13T15:33:33.867Z,96602.20
2018-09-13T15:36:58.716Z,96604.16
2018-09-13T15:40:23.484Z,96601.36
2018-09-13T15:43:48.499Z,96609.06
2018-09-13T15:47:13.233Z,96604.26
2018-09-13T15:50:38.102Z,96604.48
2018-09-13T15:54:02.981Z,96599.63
2018-09-13T15:57:27.845Z,96613.29
2018-09-13T16:00:52.651Z,96627.78
2018-09-13T16:04:17.453Z,96637.98
2018-09-13T16:07:42.845Z,96643.62
2018-09-13T16:11:10.297Z,96648.30
2018-09-13T16:14:35.429Z,96649.05
2018-09-13T16:18:01.059Z,96648.82
2018-09-13T16:21:26.117Z,96656.38
2018-09-13T16:24:50.947Z,96677.73
2018-09-13T16:28:15.732Z,96698.81
2018-09-13T16:31:40.495Z,96708.72
2018-09-13T16:35:05.969Z,96722.88
2018-09-13T16:38:35.900Z,96741.80
2018-09-13T16:42:05.979Z,96765.46
2018-09-13T16:45:31.815Z,96762.30
2018-09-13T16:48:56.659Z,96761.26
2018-09-13T16:52:21.259Z,96772.89
2018-09-13T16:55:46.054Z,96783.91
2018-09-13T16:59:10.842Z,96791.38
2018-09-13T17:02:35.514Z,96815.05
2018-09-13T17:06:00.325Z,96832.19
2018-09-13T17:09:25.128Z,96835.94
2018-09-13T17:12:49.917Z,96833.30
2018-09-13T17:16:14.722Z,96826.78
2018-09-13T17:19:39.529Z,96827.52
2018-09-13T17:23:04.518Z,96844.38
2018-09-13T17:26:29.242Z,96858.17
2018-09-13T17:29:54.125Z,96878.48
2018-09-13T17:33:19.195Z,96891.16
2018-09-13T17:36:43.976Z,96908.00
2018-09-13T17:40:08.861Z,96901.88
2018-09-13T17:43:34.675Z,96900.84
2018-09-13T17:47:00.544Z,96891.78
2018-09-13T17:50:25.719Z,96880.88
2018-09-13T17:53:50.671Z,96876.70
2018-09-13T17:57:15.654Z,96881.27
2018-09-13T18:00:40.388Z,96885.67
2018-09-13T18:04:05.234Z,96884.62
2018-09-13T18:11:11.093Z,96911.40
2018-09-13T18:14:36.184Z,96925.53
2018-09-13T18:18:00.916Z,96935.11
2018-09-13T18:21:25.586Z,96930.20
2018-09-13T18:24:50.532Z,96934.67
2018-09-13T18:28:15.225Z,96938.75
2018-09-13T18:31:39.983Z,96940.41
2018-09-13T18:35:04.733Z,96947.70
2018-09-13T18:38:29.439Z,96941.97
2018-09-13T18:41:54.286Z,96949.05
2018-09-13T18:45:19.057Z,96954.83
2018-09-13T18:48:43.826Z,96957.50
2018-09-13T18:52:08.714Z,96953.69
2018-09-13T18:55:33.456Z,96962.05
2018-09-13T18:58:58.146Z,96965.09
2018-09-13T19:02:22.844Z,96966.22
2018-09-13T19:05:47.599Z,96968.29
2018-09-13T19:09:12.732Z,96971.59
2018-09-13T19:12:37.531Z,96972.41
2018-09-13T19:16:02.310Z,96972.94
2018-09-13T19:19:27.046Z,96970.38
2018-09-13T19:22:52.193Z,96978.85
2018-09-13T19:26:16.956Z,96974.33
2018-09-13T19:29:41.654Z,96966.69
2018-09-13T19:33:06.506Z,96969.78
2018-09-13T19:36:31.364Z,96969.45
2018-09-13T19:39:56.149Z,96975.42
2018-09-13T19:43:22.164Z,96973.48
2018-09-13T19:46:47.526Z,96972.95
2018-09-13T19:50:12.870Z,96970.98
2018-09-13T19:53:38.418Z,96983.05
2018-09-13T19:57:03.511Z,96977.20
2018-09-13T20:00:28.943Z,96981.33
2018-09-13T20:03:54.839Z,96978.84
2018-09-13T20:07:19.590Z,96973.38
2018-09-13T20:10:44.299Z,96969.20
2018-09-13T20:14:09.085Z,96979.44
2018-09-13T20:17:33.830Z,96974.45
2018-09-13T20:20:58.533Z,96977.08
2018-09-13T20:24:23.334Z,96976.52
2018-09-13T20:27:48.020Z,96976.96
2018-09-13T20:31:12.722Z,96974.48
2018-09-13T20:34:37.438Z,96977.89
2018-09-13T20:38:02.185Z,96974.83
2018-09-13T20:41:26.843Z,96971.97
2018-09-13T20:44:51.702Z,96975.69
2018-09-13T20:48:16.419Z,96970.03
2018-09-13T20:51:41.097Z,96967.89
2018-09-13T20:55:05.902Z,96967.89
2018-09-13T20:58:30.643Z,96972.52
2018-09-13T21:01:55.362Z,96972.64
2018-09-13T21:05:20.465Z,96978.98
2018-09-13T21:08:45.304Z,96987.22
2018-09-13T21:12:10.074Z,96988.80
2018-09-13T21:15:34.790Z,96979.66
2018-09-13T21:18:59.528Z,96965.27
2018-09-13T21:22:24.189Z,96961.94
2018-09-13T21:25:48.888Z,96961.89
2018-09-13T21:29:13.609Z,96969.45
2018-09-13T21:32:38.369Z,96965.34
2018-09-13T21:36:02.989Z,96962.09
2018-09-13T21:39:27.655Z,96950.19
2018-09-13T21:42:52.339Z,96938.59
2018-09-13T21:46:17.047Z,96935.20
2018-09-13T21:49:42.216Z,96930.56
2018-09-13T21:53:06.913Z,96944.20
2018-09-13T21:56:31.698Z,96941.75
2018-09-13T21:59:56.425Z,96939.75
2018-09-13T22:03:37.210Z,96943.28
2018-09-13T22:07:02.608Z,96938.19
2018-09-13T22:10:27.967Z,96939.20
2018-09-13T22:13:54.133Z,96934.75
2018-09-13T22:17:19.300Z,96929.22
2018-09-13T22:20:44.646Z,96926.11
2018-09-13T22:24:09.740Z,96921.72
2018-09-13T22:27:34.709Z,96920.75
2018-09-13T22:31:00.028Z,96917.13
2018-09-13T22:34:25.198Z,96921.23
2018-09-13T22:37:50.577Z,96907.05
2018-09-13T22:41:15.692Z,96906.82
2018-09-13T22:44:42.021Z,96889.55
2018-09-13T22:48:07.042Z,96893.38
2018-09-13T22:51:31.758Z,96897.56
2018-09-13T22:54:56.422Z,96903.39
2018-09-13T22:58:21.087Z,96901.91
2018-09-13T23:01:45.743Z,96906.08
2018-09-13T23:05:10.489Z,96905.44
2018-09-13T23:08:35.163Z,96911.09
2018-09-13T23:11:59.827Z,96918.28
2018-09-13T23:15:24.459Z,96920.02
2018-09-13T23:20:13.533Z,96914.23
2018-09-13T23:23:38.259Z,96909.15
2018-09-13T23:27:03.000Z,96922.80
2018-09-13T23:30:27.737Z,96928.75
2018-09-13T23:33:52.465Z,96918.95
2018-09-13T23:37:17.141Z,96921.36
2018-09-13T23:40:41.972Z,96925.14
2018-09-13T23:44:06.508Z,96925.04
2018-09-13T23:47:31.261Z,96925.88
2018-09-13T23:50:55.897Z,96922.72
2018-09-13T23:54:20.647Z,96928.59
2018-09-13T23:57:45.491Z,96926.19
